sensor_id;sensor_type;location;lat;lon;timestamp;pressure;altitude;pressure_sealevel;temperature;humidity
58690;BME280;44470;53.206;-6.106;2023-06-01T00:01:03;102784.34;;;20.82;58.54
58690;BME280;44470;53.206;-6.106;2023-06-01T00:03:30;102783.38;;;20.78;58.56
58690;BME280;44470;53.206;-6.106;2023-06-01T00:05:56;102787.03;;;20.82;58.52
58690;BME280;44470;53.206;-6.106;2023-06-01T00:08:22;102787.91;;;20.82;58.52
58690;BME280;44470;53.206;-6.106;2023-06-01T00:10:50;102779.00;;;20.82;58.52
58690;BME280;44470;53.206;-6.106;2023-06-01T00:13:16;102791.50;;;20.83;58.54
58690;BME280;44470;53.206;-6.106;2023-06-01T00:15:41;102790.59;;;20.82;58.60
58690;BME280;44470;53.206;-6.106;2023-06-01T00:18:07;102785.25;;;20.82;58.55
58690;BME280;44470;53.206;-6.106;2023-06-01T00:20:38;102795.94;;;20.82;58.44
58690;BME280;44470;53.206;-6.106;2023-06-01T00:23:04;102787.91;;;20.82;58.87
58690;BME280;44470;53.206;-6.106;2023-06-01T00:25:30;102778.09;;;20.81;58.60
58690;BME280;44470;53.206;-6.106;2023-06-01T00:27:56;102787.91;;;20.82;58.89
58690;BME280;44470;53.206;-6.106;2023-06-01T00:30:21;102792.38;;;20.82;59.07
58690;BME280;44470;53.206;-6.106;2023-06-01T00:32:47;102790.59;;;20.82;58.68
58690;BME280;44470;53.206;-6.106;2023-06-01T00:35:12;102789.72;;;20.82;58.49
58690;BME280;44470;53.206;-6.106;2023-06-01T00:37:38;102788.81;;;20.81;58.66
58690;BME280;44470;53.206;-6.106;2023-06-01T00:40:03;102784.34;;;20.82;58.61
58690;BME280;44470;53.206;-6.106;2023-06-01T00:42:29;102778.13;;;20.83;58.82
58690;BME280;44470;53.206;-6.106;2023-06-01T00:44:54;102782.56;;;20.81;58.96
58690;BME280;44470;53.206;-6.106;2023-06-01T00:47:20;102775.41;;;20.81;58.64
58690;BME280;44470;53.206;-6.106;2023-06-01T00:49:46;102776.34;;;20.82;58.55
58690;BME280;44470;53.206;-6.106;2023-06-01T00:52:12;102784.34;;;20.82;58.83
58690;BME280;44470;53.206;-6.106;2023-06-01T00:54:38;102776.31;;;20.80;58.61
58690;BME280;44470;53.206;-6.106;2023-06-01T00:57:04;102771.88;;;20.81;58.93
58690;BME280;44470;53.206;-6.106;2023-06-01T00:59:31;102782.56;;;20.81;58.60
58690;BME280;44470;53.206;-6.106;2023-06-01T01:01:57;102770.97;;;20.82;58.67
58690;BME280;44470;53.206;-6.106;2023-06-01T01:04:23;102768.28;;;20.80;58.84
58690;BME280;44470;53.206;-6.106;2023-06-01T01:09:23;102766.50;;;20.81;58.62
58690;BME280;44470;53.206;-6.106;2023-06-01T01:12:00;102766.50;;;20.81;58.69
58690;BME280;44470;53.206;-6.106;2023-06-01T01:14:28;102767.38;;;20.81;58.85
58690;BME280;44470;53.206;-6.106;2023-06-01T01:17:17;102767.41;;;20.80;58.69
58690;BME280;44470;53.206;-6.106;2023-06-01T01:19:57;102761.16;;;20.81;58.57
58690;BME280;44470;53.206;-6.106;2023-06-01T01:27:37;102754.91;;;20.80;58.90
58690;BME280;44470;53.206;-6.106;2023-06-01T01:30:04;102759.38;;;20.80;58.86
58690;BME280;44470;53.206;-6.106;2023-06-01T01:32:32;102759.38;;;20.80;58.92
58690;BME280;44470;53.206;-6.106;2023-06-01T01:34:58;102750.44;;;20.79;58.70
58690;BME280;44470;53.206;-6.106;2023-06-01T01:37:23;102752.22;;;20.79;58.83
58690;BME280;44470;53.206;-6.106;2023-06-01T01:39:49;102746.00;;;20.80;58.61
58690;BME280;44470;53.206;-6.106;2023-06-01T01:42:15;102745.94;;;20.78;58.72
58690;BME280;44470;53.206;-6.106;2023-06-01T01:44:40;102746.88;;;20.79;58.76
58690;BME280;44470;53.206;-6.106;2023-06-01T01:49:37;102741.53;;;20.79;58.61
58690;BME280;44470;53.206;-6.106;2023-06-01T01:52:08;102741.53;;;20.79;58.87
58690;BME280;44470;53.206;-6.106;2023-06-01T01:54:41;102740.63;;;20.80;58.55
58690;BME280;44470;53.206;-6.106;2023-06-01T01:57:07;102736.16;;;20.79;58.80
58690;BME280;44470;53.206;-6.106;2023-06-01T01:59:33;102733.50;;;20.79;58.70
58690;BME280;44470;53.206;-6.106;2023-06-01T02:01:58;102728.13;;;20.79;58.79
58690;BME280;44470;53.206;-6.106;2023-06-01T02:04:24;102730.81;;;20.79;58.94
58690;BME280;44470;53.206;-6.106;2023-06-01T02:06:49;102724.53;;;20.78;58.51
58690;BME280;44470;53.206;-6.106;2023-06-01T02:09:16;102737.91;;;20.78;58.78
58690;BME280;44470;53.206;-6.106;2023-06-01T02:11:42;102725.47;;;20.79;58.56
58690;BME280;44470;53.206;-6.106;2023-06-01T02:14:09;102723.63;;;20.77;58.60
58690;BME280;44470;53.206;-6.106;2023-06-01T02:16:34;102718.28;;;20.77;58.77
58690;BME280;44470;53.206;-6.106;2023-06-01T02:18:59;102721.84;;;20.78;58.88
58690;BME280;44470;53.206;-6.106;2023-06-01T02:21:25;102717.38;;;20.77;58.77
58690;BME280;44470;53.206;-6.106;2023-06-01T02:23:51;102717.38;;;20.77;58.74
58690;BME280;44470;53.206;-6.106;2023-06-01T02:26:17;102723.63;;;20.77;58.78
58690;BME280;44470;53.206;-6.106;2023-06-01T02:28:43;102718.28;;;20.77;58.59
58690;BME280;44470;53.206;-6.106;2023-06-01T02:31:09;102718.28;;;20.77;58.40
58690;BME280;44470;53.206;-6.106;2023-06-01T02:33:35;102712.03;;;20.77;58.43
58690;BME280;44470;53.206;-6.106;2023-06-01T02:36:01;102712.91;;;20.76;58.80
58690;BME280;44470;53.206;-6.106;2023-06-01T02:38:27;102715.59;;;20.77;58.44
58690;BME280;44470;53.206;-6.106;2023-06-01T02:40:52;102712.94;;;20.77;58.65
58690;BME280;44470;53.206;-6.106;2023-06-01T02:43:18;102717.38;;;20.77;58.68
58690;BME280;44470;53.206;-6.106;2023-06-01T02:45:43;102714.69;;;20.77;58.66
58690;BME280;44470;53.206;-6.106;2023-06-01T02:48:09;102706.66;;;20.77;58.80
58690;BME280;44470;53.206;-6.106;2023-06-01T02:50:35;102704.91;;;20.77;58.30
58690;BME280;44470;53.206;-6.106;2023-06-01T02:53:00;102704.88;;;20.76;58.88
58690;BME280;44470;53.206;-6.106;2023-06-01T02:55:26;102700.44;;;20.76;58.81
58690;BME280;44470;53.206;-6.106;2023-06-01T02:58:07;102695.97;;;20.75;58.53
58690;BME280;44470;53.206;-6.106;2023-06-01T03:00:46;102702.19;;;20.76;58.63
58690;BME280;44470;53.206;-6.106;2023-06-01T03:03:12;102705.78;;;20.76;58.74
58690;BME280;44470;53.206;-6.106;2023-06-01T03:05:38;102704.00;;;20.75;58.65
58690;BME280;44470;53.206;-6.106;2023-06-01T03:08:22;102695.06;;;20.73;58.80
58690;BME280;44470;53.206;-6.106;2023-06-01T03:10:50;102693.28;;;20.75;58.44
58690;BME280;44470;53.206;-6.106;2023-06-01T03:13:21;102695.06;;;20.75;58.61
58690;BME280;44470;53.206;-6.106;2023-06-01T03:15:47;102694.16;;;20.76;58.61
58690;BME280;44470;53.206;-6.106;2023-06-01T03:18:12;102691.50;;;20.74;58.51
58690;BME280;44470;53.206;-6.106;2023-06-01T03:20:39;102692.38;;;20.75;58.37
58690;BME280;44470;53.206;-6.106;2023-06-01T03:23:04;102691.50;;;20.74;58.38
58690;BME280;44470;53.206;-6.106;2023-06-01T03:25:30;102696.84;;;20.74;58.25
58690;BME280;44470;53.206;-6.106;2023-06-01T03:27:55;102699.53;;;20.74;58.62
58690;BME280;44470;53.206;-6.106;2023-06-01T03:30:21;102704.00;;;20.75;58.72
58690;BME280;44470;53.206;-6.106;2023-06-01T03:32:47;102699.53;;;20.74;58.28
58690;BME280;44470;53.206;-6.106;2023-06-01T03:35:13;102695.06;;;20.75;58.42
58690;BME280;44470;53.206;-6.106;2023-06-01T03:37:41;102691.50;;;20.74;58.30
58690;BME280;44470;53.206;-6.106;2023-06-01T03:40:07;102689.72;;;20.73;58.82
58690;BME280;44470;53.206;-6.106;2023-06-01T03:45:03;102684.34;;;20.73;58.34
58690;BME280;44470;53.206;-6.106;2023-06-01T03:47:30;102688.81;;;20.73;58.67
58690;BME280;44470;53.206;-6.106;2023-06-01T03:49:55;102690.59;;;20.74;58.68
58690;BME280;44470;53.206;-6.106;2023-06-01T03:52:23;102672.69;;;20.64;58.37
58690;BME280;44470;53.206;-6.106;2023-06-01T03:54:48;102692.38;;;20.73;58.62
58690;BME280;44470;53.206;-6.106;2023-06-01T03:57:31;102690.63;;;20.75;58.60
58690;BME280;44470;53.206;-6.106;2023-06-01T03:59:57;102685.25;;;20.74;58.25
58690;BME280;44470;53.206;-6.106;2023-06-01T04:02:23;102695.06;;;20.73;58.68
58690;BME280;44470;53.206;-6.106;2023-06-01T04:04:49;102691.50;;;20.74;58.60
58690;BME280;44470;53.206;-6.106;2023-06-01T04:07:15;102684.34;;;20.73;58.62
58690;BME280;44470;53.206;-6.106;2023-06-01T04:09:44;102689.72;;;20.73;58.32
58690;BME280;44470;53.206;-6.106;2023-06-01T04:12:10;102674.50;;;20.68;58.29
58690;BME280;44470;53.206;-6.106;2023-06-01T04:14:39;102689.72;;;20.73;58.55
58690;BME280;44470;53.206;-6.106;2023-06-01T04:17:04;102689.69;;;20.72;58.34
58690;BME280;44470;53.206;-6.106;2023-06-01T04:19:30;102695.06;;;20.73;58.55
58690;BME280;44470;53.206;-6.106;2023-06-01T04:22:02;102687.00;;;20.72;58.15
58690;BME280;44470;53.206;-6.106;2023-06-01T04:24:27;102694.16;;;20.73;58.53
58690;BME280;44470;53.206;-6.106;2023-06-01T04:26:53;102691.47;;;20.73;58.50
58690;BME280;44470;53.206;-6.106;2023-06-01T04:29:19;102694.16;;;20.73;58.63
58690;BME280;44470;53.206;-6.106;2023-06-01T04:31:45;102694.16;;;20.73;58.56
58690;BME280;44470;53.206;-6.106;2023-06-01T04:34:10;102694.16;;;20.71;58.28
58690;BME280;44470;53.206;-6.106;2023-06-01T04:36:36;102691.47;;;20.71;58.64
58690;BME280;44470;53.206;-6.106;2023-06-01T04:39:05;102696.84;;;20.71;58.49
58690;BME280;44470;53.206;-6.106;2023-06-01T04:41:31;102698.63;;;20.72;58.68
58690;BME280;44470;53.206;-6.106;2023-06-01T04:43:57;102695.91;;;20.71;58.35
58690;BME280;44470;53.206;-6.106;2023-06-01T04:46:24;102695.94;;;20.72;58.28
58690;BME280;44470;53.206;-6.106;2023-06-01T04:48:53;102698.63;;;20.72;58.16
58690;BME280;44470;53.206;-6.106;2023-06-01T04:51:20;102705.75;;;20.70;58.32
58690;BME280;44470;53.206;-6.106;2023-06-01T04:53:47;102706.63;;;20.71;58.26
58690;BME280;44470;53.206;-6.106;2023-06-01T04:56:15;102708.41;;;20.70;58.59
58690;BME280;44470;53.206;-6.106;2023-06-01T04:58:41;102707.53;;;20.71;58.42
58690;BME280;44470;53.206;-6.106;2023-06-01T05:01:06;102715.56;;;20.71;58.67
58690;BME280;44470;53.206;-6.106;2023-06-01T05:03:32;102716.44;;;20.70;58.59
58690;BME280;44470;53.206;-6.106;2023-06-01T05:05:58;102719.13;;;20.72;58.54
58690;BME280;44470;53.206;-6.106;2023-06-01T05:08:23;102705.75;;;20.70;58.62
58690;BME280;44470;53.206;-6.106;2023-06-01T05:10:49;102714.66;;;20.71;58.24
58690;BME280;44470;53.206;-6.106;2023-06-01T05:13:14;102716.44;;;20.70;58.56
58690;BME280;44470;53.206;-6.106;2023-06-01T05:15:40;102712.88;;;20.71;58.50
58690;BME280;44470;53.206;-6.106;2023-06-01T05:18:06;102716.44;;;20.70;58.27
58690;BME280;44470;53.206;-6.106;2023-06-01T05:20:31;102720.00;;;20.69;58.56
58690;BME280;44470;53.206;-6.106;2023-06-01T05:23:17;102716.44;;;20.70;58.55
58690;BME280;44470;53.206;-6.106;2023-06-01T05:25:42;102711.09;;;20.70;58.56
58690;BME280;44470;53.206;-6.106;2023-06-01T05:28:08;102710.19;;;20.70;58.69
58690;BME280;44470;53.206;-6.106;2023-06-01T05:30:34;102708.41;;;20.70;58.69
58690;BME280;44470;53.206;-6.106;2023-06-01T05:33:00;102704.84;;;20.70;58.29
58690;BME280;44470;53.206;-6.106;2023-06-01T05:35:26;102709.31;;;20.69;58.33
58690;BME280;44470;53.206;-6.106;2023-06-01T05:37:51;102720.88;;;20.70;58.38
58690;BME280;44470;53.206;-6.106;2023-06-01T05:40:17;102718.22;;;20.70;58.37
58690;BME280;44470;53.206;-6.106;2023-06-01T05:42:42;102723.56;;;20.70;58.56
58690;BME280;44470;53.206;-6.106;2023-06-01T05:45:09;102721.81;;;20.70;58.42
58690;BME280;44470;53.206;-6.106;2023-06-01T05:47:35;102720.00;;;20.69;58.70
58690;BME280;44470;53.206;-6.106;2023-06-01T05:50:00;102715.53;;;20.70;58.70
58690;BME280;44470;53.206;-6.106;2023-06-01T05:52:26;102714.66;;;20.69;58.55
58690;BME280;44470;53.206;-6.106;2023-06-01T05:54:51;102721.81;;;20.70;58.56
58690;BME280;44470;53.206;-6.106;2023-06-01T05:57:19;102725.34;;;20.69;58.79
58690;BME280;44470;53.206;-6.106;2023-06-01T05:59:44;102722.69;;;20.69;58.57
58690;BME280;44470;53.206;-6.106;2023-06-01T06:02:12;102726.25;;;20.70;58.57
58690;BME280;44470;53.206;-6.106;2023-06-01T06:04:38;102730.72;;;20.69;58.72
58690;BME280;44470;53.206;-6.106;2023-06-01T06:07:03;102725.34;;;20.69;58.63
58690;BME280;44470;53.206;-6.106;2023-06-01T06:09:28;102724.47;;;20.70;58.70
58690;BME280;44470;53.206;-6.106;2023-06-01T06:11:54;102722.69;;;20.69;58.74
58690;BME280;44470;53.206;-6.106;2023-06-01T06:14:19;102720.88;;;20.70;58.58
58690;BME280;44470;53.206;-6.106;2023-06-01T06:16:45;102725.34;;;20.69;58.57
58690;BME280;44470;53.206;-6.106;2023-06-01T06:19:10;102721.81;;;20.70;58.71
58690;BME280;44470;53.206;-6.106;2023-06-01T06:21:37;102729.81;;;20.70;58.75
58690;BME280;44470;53.206;-6.106;2023-06-01T06:24:02;102727.13;;;20.69;58.88
58690;BME280;44470;53.206;-6.106;2023-06-01T06:26:28;102728.91;;;20.70;58.79
58690;BME280;44470;53.206;-6.106;2023-06-01T06:28:54;102731.63;;;20.71;58.79
58690;BME280;44470;53.206;-6.106;2023-06-01T06:31:20;102724.47;;;20.72;59.01
58690;BME280;44470;53.206;-6.106;2023-06-01T06:33:46;102725.34;;;20.71;59.39
58690;BME280;44470;53.206;-6.106;2023-06-01T06:36:11;102729.81;;;20.72;59.51
58690;BME280;44470;53.206;-6.106;2023-06-01T06:38:37;102739.63;;;20.73;59.33
58690;BME280;44470;53.206;-6.106;2023-06-01T06:41:02;102736.97;;;20.73;59.37
58690;BME280;44470;53.206;-6.106;2023-06-01T06:43:27;102739.66;;;20.71;59.71
58690;BME280;44470;53.206;-6.106;2023-06-01T06:45:53;102731.63;;;20.71;59.53
58690;BME280;44470;53.206;-6.106;2023-06-01T06:48:18;102742.31;;;20.71;59.48
58690;BME280;44470;53.206;-6.106;2023-06-01T06:50:43;102736.97;;;20.71;59.85
58690;BME280;44470;53.206;-6.106;2023-06-01T06:53:10;102734.28;;;20.71;59.87
58690;BME280;44470;53.206;-6.106;2023-06-01T06:55:35;102739.66;;;20.71;59.66
58690;BME280;44470;53.206;-6.106;2023-06-01T06:58:01;102730.72;;;20.71;59.50
58690;BME280;44470;53.206;-6.106;2023-06-01T07:00:26;102729.81;;;20.70;59.91
58690;BME280;44470;53.206;-6.106;2023-06-01T07:02:52;102737.84;;;20.70;59.38
58690;BME280;44470;53.206;-6.106;2023-06-01T07:05:18;102744.09;;;20.71;59.76
58690;BME280;44470;53.206;-6.106;2023-06-01T07:07:46;102736.06;;;20.69;59.73
58690;BME280;44470;53.206;-6.106;2023-06-01T07:10:12;102743.19;;;20.70;59.60
58690;BME280;44470;53.206;-6.106;2023-06-01T07:12:37;102746.75;;;20.69;59.74
58690;BME280;44470;53.206;-6.106;2023-06-01T07:15:03;102740.53;;;20.70;59.51
58690;BME280;44470;53.206;-6.106;2023-06-01T07:17:29;102736.06;;;20.69;59.71
58690;BME280;44470;53.206;-6.106;2023-06-01T07:19:55;102737.84;;;20.70;59.47
58690;BME280;44470;53.206;-6.106;2023-06-01T07:22:21;102736.94;;;20.70;59.71
58690;BME280;44470;53.206;-6.106;2023-06-01T07:24:46;102738.75;;;20.69;59.33
58690;BME280;44470;53.206;-6.106;2023-06-01T07:27:12;102745.00;;;20.71;59.57
58690;BME280;44470;53.206;-6.106;2023-06-01T07:29:38;102745.88;;;20.70;59.22
58690;BME280;44470;53.206;-6.106;2023-06-01T07:32:04;102741.41;;;20.69;59.50
58690;BME280;44470;53.206;-6.106;2023-06-01T07:34:30;102743.19;;;20.70;59.36
58690;BME280;44470;53.206;-6.106;2023-06-01T07:36:55;102743.19;;;20.70;59.38
58690;BME280;44470;53.206;-6.106;2023-06-01T07:39:24;102744.09;;;20.69;59.50
58690;BME280;44470;53.206;-6.106;2023-06-01T07:41:49;102751.19;;;20.69;59.61
58690;BME280;44470;53.206;-6.106;2023-06-01T07:44:15;102744.09;;;20.69;59.69
58690;BME280;44470;53.206;-6.106;2023-06-01T07:46:44;102743.13;;;20.62;59.49
58690;BME280;44470;53.206;-6.106;2023-06-01T07:49:09;102748.53;;;20.69;59.71
58690;BME280;44470;53.206;-6.106;2023-06-01T07:51:38;102744.97;;;20.70;59.38
58690;BME280;44470;53.206;-6.106;2023-06-01T07:54:04;102746.75;;;20.69;59.60
58690;BME280;44470;53.206;-6.106;2023-06-01T07:56:29;102753.91;;;20.70;59.49
58690;BME280;44470;53.206;-6.106;2023-06-01T07:58:55;102751.22;;;20.70;59.35
58690;BME280;44470;53.206;-6.106;2023-06-01T08:01:20;102748.56;;;20.70;59.57
58690;BME280;44470;53.206;-6.106;2023-06-01T08:03:45;102753.00;;;20.70;59.43
58690;BME280;44470;53.206;-6.106;2023-06-01T08:06:11;102752.13;;;20.69;59.60
58690;BME280;44470;53.206;-6.106;2023-06-01T08:08:37;102757.47;;;20.71;59.33
58690;BME280;44470;53.206;-6.106;2023-06-01T08:11:02;102748.56;;;20.70;59.27
58690;BME280;44470;53.206;-6.106;2023-06-01T08:13:27;102753.91;;;20.70;59.06
58690;BME280;44470;53.206;-6.106;2023-06-01T08:15:53;102752.13;;;20.69;59.03
58690;BME280;44470;53.206;-6.106;2023-06-01T08:18:19;102757.47;;;20.69;59.42
58690;BME280;44470;53.206;-6.106;2023-06-01T08:20:48;102756.59;;;20.70;58.87
58690;BME280;44470;53.206;-6.106;2023-06-01T08:23:13;102757.47;;;20.69;58.93
58690;BME280;44470;53.206;-6.106;2023-06-01T08:25:42;102764.59;;;20.70;58.84
58690;BME280;44470;53.206;-6.106;2023-06-01T08:28:07;102759.25;;;20.70;59.13
58690;BME280;44470;53.206;-6.106;2023-06-01T08:30:33;102768.16;;;20.69;59.04
58690;BME280;44470;53.206;-6.106;2023-06-01T08:32:58;102766.38;;;20.70;58.86
58690;BME280;44470;53.206;-6.106;2023-06-01T08:35:24;102768.16;;;20.69;58.70
58690;BME280;44470;53.206;-6.106;2023-06-01T08:37:50;102756.50;;;20.62;58.68
58690;BME280;44470;53.206;-6.106;2023-06-01T08:40:15;102772.63;;;20.70;58.94
58690;BME280;44470;53.206;-6.106;2023-06-01T08:45:11;102770.84;;;20.71;59.05
58690;BME280;44470;53.206;-6.106;2023-06-01T08:47:36;102766.38;;;20.70;59.24
58690;BME280;44470;53.206;-6.106;2023-06-01T08:50:03;102767.28;;;20.70;59.35
58690;BME280;44470;53.206;-6.106;2023-06-01T08:52:29;102762.81;;;20.69;59.60
58690;BME280;44470;53.206;-6.106;2023-06-01T08:55:00;102769.97;;;20.70;59.65
58690;BME280;44470;53.206;-6.106;2023-06-01T08:57:27;102764.59;;;20.70;59.75
58690;BME280;44470;53.206;-6.106;2023-06-01T08:59:53;102765.50;;;20.69;59.62
58690;BME280;44470;53.206;-6.106;2023-06-01T09:02:18;102766.31;;;20.65;59.78
58690;BME280;44470;53.206;-6.106;2023-06-01T09:04:45;102769.97;;;20.70;59.69
58690;BME280;44470;53.206;-6.106;2023-06-01T09:07:11;102769.06;;;20.70;59.82
58690;BME280;44470;53.206;-6.106;2023-06-01T09:09:36;102769.97;;;20.70;59.65
58690;BME280;44470;53.206;-6.106;2023-06-01T09:14:46;102769.91;;;20.67;59.67
58690;BME280;44470;53.206;-6.106;2023-06-01T09:17:15;102773.53;;;20.69;59.44
58690;BME280;44470;53.206;-6.106;2023-06-01T09:19:46;102765.44;;;20.66;59.61
58690;BME280;44470;53.206;-6.106;2023-06-01T09:22:12;102774.41;;;20.70;59.83
58690;BME280;44470;53.206;-6.106;2023-06-01T09:24:40;102771.72;;;20.70;59.77
58690;BME280;44470;53.206;-6.106;2023-06-01T09:27:06;102768.16;;;20.69;59.43
58690;BME280;44470;53.206;-6.106;2023-06-01T09:29:32;102774.41;;;20.70;59.38
58690;BME280;44470;53.206;-6.106;2023-06-01T09:31:58;102774.41;;;20.68;59.77
58690;BME280;44470;53.206;-6.106;2023-06-01T09:34:24;102778.88;;;20.69;59.60
58690;BME280;44470;53.206;-6.106;2023-06-01T09:36:50;102774.41;;;20.70;59.95
58690;BME280;44470;53.206;-6.106;2023-06-01T09:39:17;102769.94;;;20.69;59.84
58690;BME280;44470;53.206;-6.106;2023-06-01T09:41:55;102773.53;;;20.69;60.01
58690;BME280;44470;53.206;-6.106;2023-06-01T09:44:22;102769.94;;;20.69;59.86
58690;BME280;44470;53.206;-6.106;2023-06-01T09:46:48;102766.38;;;20.68;60.10
58690;BME280;44470;53.206;-6.106;2023-06-01T09:49:17;102779.75;;;20.70;60.10
58690;BME280;44470;53.206;-6.106;2023-06-01T09:51:44;102777.97;;;20.69;59.89
58690;BME280;44470;53.206;-6.106;2023-06-01T09:54:09;102773.53;;;20.69;60.08
58690;BME280;44470;53.206;-6.106;2023-06-01T09:56:42;102771.72;;;20.68;59.85
58690;BME280;44470;53.206;-6.106;2023-06-01T09:59:07;102776.19;;;20.69;59.89
58690;BME280;44470;53.206;-6.106;2023-06-01T10:01:33;102766.38;;;20.68;60.12
58690;BME280;44470;53.206;-6.106;2023-06-01T10:03:59;102769.06;;;20.68;59.85
58690;BME280;44470;53.206;-6.106;2023-06-01T10:06:25;102769.06;;;20.70;59.95
58690;BME280;44470;53.206;-6.106;2023-06-01T10:08:51;102769.94;;;20.69;60.36
58690;BME280;44470;53.206;-6.106;2023-06-01T10:11:17;102767.25;;;20.69;60.03
58690;BME280;44470;53.206;-6.106;2023-06-01T10:13:43;102757.47;;;20.69;59.92
58690;BME280;44470;53.206;-6.106;2023-06-01T10:16:08;102762.81;;;20.69;60.26
58690;BME280;44470;53.206;-6.106;2023-06-01T10:18:33;102767.28;;;20.70;60.20
58690;BME280;44470;53.206;-6.106;2023-06-01T10:21:00;102773.53;;;20.69;60.10
58690;BME280;44470;53.206;-6.106;2023-06-01T10:23:26;102778.88;;;20.69;59.98
58690;BME280;44470;53.206;-6.106;2023-06-01T10:25:51;102778.88;;;20.69;59.92
58690;BME280;44470;53.206;-6.106;2023-06-01T10:28:17;102787.78;;;20.68;60.12
58690;BME280;44470;53.206;-6.106;2023-06-01T10:30:43;102784.19;;;20.68;60.27
58690;BME280;44470;53.206;-6.106;2023-06-01T10:33:10;102777.97;;;20.69;59.98
58690;BME280;44470;53.206;-6.106;2023-06-01T10:40:38;102781.53;;;20.68;60.12
58690;BME280;44470;53.206;-6.106;2023-06-01T10:43:04;102777.97;;;20.69;60.19
58690;BME280;44470;53.206;-6.106;2023-06-01T10:48:03;102787.78;;;20.68;60.05
58690;BME280;44470;53.206;-6.106;2023-06-01T10:50:29;102784.19;;;20.68;59.99
58690;BME280;44470;53.206;-6.106;2023-06-01T10:52:55;102785.06;;;20.67;60.34
58690;BME280;44470;53.206;-6.106;2023-06-01T10:55:25;102787.78;;;20.68;60.29
58690;BME280;44470;53.206;-6.106;2023-06-01T10:57:50;102785.94;;;20.67;60.35
58690;BME280;44470;53.206;-6.106;2023-06-01T11:00:17;102786.88;;;20.68;59.92
58690;BME280;44470;53.206;-6.106;2023-06-01T11:07:52;102789.53;;;20.68;60.32
58690;BME280;44470;53.206;-6.106;2023-06-01T11:13:14;102785.94;;;20.67;60.00
58690;BME280;44470;53.206;-6.106;2023-06-01T11:23:50;102775.25;;;20.67;60.05
58690;BME280;44470;53.206;-6.106;2023-06-01T11:26:16;102769.91;;;20.67;60.25
58690;BME280;44470;53.206;-6.106;2023-06-01T11:28:42;102769.91;;;20.67;60.34
58690;BME280;44470;53.206;-6.106;2023-06-01T11:31:11;102767.22;;;20.67;60.06
58690;BME280;44470;53.206;-6.106;2023-06-01T11:33:40;102769.03;;;20.67;60.30
58690;BME280;44470;53.206;-6.106;2023-06-01T11:36:07;102780.59;;;20.67;60.01
58690;BME280;44470;53.206;-6.106;2023-06-01T11:38:38;102777.94;;;20.67;60.55
58690;BME280;44470;53.206;-6.106;2023-06-01T11:41:04;102780.59;;;20.67;60.54
58690;BME280;44470;53.206;-6.106;2023-06-01T11:43:30;102777.06;;;20.68;60.33
58690;BME280;44470;53.206;-6.106;2023-06-01T11:46:05;102777.06;;;20.68;60.25
58690;BME280;44470;53.206;-6.106;2023-06-01T11:48:32;102760.03;;;20.58;60.47
58690;BME280;44470;53.206;-6.106;2023-06-01T11:50:59;102778.81;;;20.66;60.30
58690;BME280;44470;53.206;-6.106;2023-06-01T11:53:25;102775.25;;;20.67;60.43
58690;BME280;44470;53.206;-6.106;2023-06-01T11:55:51;102785.94;;;20.67;60.40
58690;BME280;44470;53.206;-6.106;2023-06-01T11:58:24;102780.59;;;20.67;60.40
58690;BME280;44470;53.206;-6.106;2023-06-01T12:00:50;102783.28;;;20.67;60.42
58690;BME280;44470;53.206;-6.106;2023-06-01T12:03:15;102780.59;;;20.67;60.58
58690;BME280;44470;53.206;-6.106;2023-06-01T12:05:41;102784.19;;;20.68;60.49
58690;BME280;44470;53.206;-6.106;2023-06-01T12:08:25;102777.94;;;20.67;60.36
58690;BME280;44470;53.206;-6.106;2023-06-01T12:10:52;102777.94;;;20.67;60.27
58690;BME280;44470;53.206;-6.106;2023-06-01T12:13:19;102780.59;;;20.67;60.28
58690;BME280;44470;53.206;-6.106;2023-06-01T12:15:45;102778.78;;;20.63;57.67
58690;BME280;44470;53.206;-6.106;2023-06-01T12:18:11;102771.63;;;20.59;57.57
58690;BME280;44470;53.206;-6.106;2023-06-01T12:20:40;102780.53;;;20.61;58.08
58690;BME280;44470;53.206;-6.106;2023-06-01T12:23:12;102776.13;;;20.61;58.22
58690;BME280;44470;53.206;-6.106;2023-06-01T12:25:48;102779.69;;;20.64;58.90
58690;BME280;44470;53.206;-6.106;2023-06-01T12:28:17;102784.16;;;20.65;59.27
58690;BME280;44470;53.206;-6.106;2023-06-01T12:30:43;102777.94;;;20.66;59.48
58690;BME280;44470;53.206;-6.106;2023-06-01T12:33:09;102781.50;;;20.66;59.79
58690;BME280;44470;53.206;-6.106;2023-06-01T12:35:54;102784.16;;;20.66;59.52
58690;BME280;44470;53.206;-6.106;2023-06-01T12:38:20;102786.84;;;20.66;59.77
58690;BME280;44470;53.206;-6.106;2023-06-01T12:40:45;102786.84;;;20.66;59.70
58690;BME280;44470;53.206;-6.106;2023-06-01T12:43:17;102782.44;;;20.68;59.97
58690;BME280;44470;53.206;-6.106;2023-06-01T12:45:43;102785.94;;;20.67;60.13
58690;BME280;44470;53.206;-6.106;2023-06-01T12:48:09;102788.63;;;20.67;60.13
58690;BME280;44470;53.206;-6.106;2023-06-01T12:50:54;102789.50;;;20.66;60.01
58690;BME280;44470;53.206;-6.106;2023-06-01T12:53:19;102799.34;;;20.67;59.89
58690;BME280;44470;53.206;-6.106;2023-06-01T12:55:46;102802.00;;;20.67;59.90
58690;BME280;44470;53.206;-6.106;2023-06-01T12:58:11;102794.91;;;20.68;60.32
58690;BME280;44470;53.206;-6.106;2023-06-01T13:00:36;102798.47;;;20.68;60.27
58690;BME280;44470;53.206;-6.106;2023-06-01T13:03:02;102793.97;;;20.67;60.30
58690;BME280;44470;53.206;-6.106;2023-06-01T13:05:28;102792.19;;;20.66;60.03
58690;BME280;44470;53.206;-6.106;2023-06-01T13:07:53;102791.31;;;20.67;60.13
58690;BME280;44470;53.206;-6.106;2023-06-01T13:10:19;102789.50;;;20.66;60.04
58690;BME280;44470;53.206;-6.106;2023-06-01T13:12:44;102790.47;;;20.68;60.07
58690;BME280;44470;53.206;-6.106;2023-06-01T13:15:10;102784.16;;;20.66;60.16
58690;BME280;44470;53.206;-6.106;2023-06-01T13:17:37;102783.28;;;20.67;60.25
58690;BME280;44470;53.206;-6.106;2023-06-01T13:20:02;102777.94;;;20.66;60.26